sensor_id;sensor_type;location;lat;lon;timestamp;P1;durP1;ratioP1;P2;durP2;ratioP2
3549;SDS011;45572;48.804;8.330;2022-12-18T00:01:22;36.85;;;18.27;;
3549;SDS011;45572;48.804;8.330;2022-12-18T00:03:53;50.47;;;22.30;;
3549;SDS011;45572;48.804;8.330;2022-12-18T00:06:22;50.88;;;20.73;;
3549;SDS011;45572;48.804;8.330;2022-12-18T00:08:51;50.28;;;21.80;;
3549;SDS011;45572;48.804;8.330;2022-12-18T00:11:20;52.80;;;21.30;;
3549;SDS011;45572;48.804;8.330;2022-12-18T00:13:50;36.22;;;19.98;;
3549;SDS011;45572;48.804;8.330;2022-12-18T00:16:19;39.42;;;18.73;;
3549;SDS011;45572;48.804;8.330;2022-12-18T00:18:49;37.97;;;18.95;;
3549;SDS011;45572;48.804;8.330;2022-12-18T00:21:19;53.17;;;21.70;;
3549;SDS011;45572;48.804;8.330;2022-12-18T00:23:48;42.35;;;18.67;;
3549;SDS011;45572;48.804;8.330;2022-12-18T00:26:20;52.75;;;19.80;;
3549;SDS011;45572;48.804;8.330;2022-12-18T00:28:57;47.85;;;22.50;;
3549;SDS011;45572;48.804;8.330;2022-12-18T00:31:26;42.28;;;19.80;;
3549;SDS011;45572;48.804;8.330;2022-12-18T00:33:56;47.65;;;18.60;;
3549;SDS011;45572;48.804;8.330;2022-12-18T00:36:26;45.63;;;19.00;;
3549;SDS011;45572;48.804;8.330;2022-12-18T00:38:57;37.60;;;19.77;;
3549;SDS011;45572;48.804;8.330;2022-12-18T00:41:27;55.55;;;19.58;;
3549;SDS011;45572;48.804;8.330;2022-12-18T00:44:10;42.63;;;17.15;;
3549;SDS011;45572;48.804;8.330;2022-12-18T00:46:39;35.97;;;16.80;;
3549;SDS011;45572;48.804;8.330;2022-12-18T00:49:07;38.10;;;16.50;;
3549;SDS011;45572;48.804;8.330;2022-12-18T00:51:36;34.90;;;17.15;;
3549;SDS011;45572;48.804;8.330;2022-12-18T00:54:04;52.42;;;21.38;;
3549;SDS011;45572;48.804;8.330;2022-12-18T00:56:32;44.67;;;19.73;;
3549;SDS011;45572;48.804;8.330;2022-12-18T00:59:00;48.65;;;17.98;;
3549;SDS011;45572;48.804;8.330;2022-12-18T01:01:28;46.80;;;20.08;;
3549;SDS011;45572;48.804;8.330;2022-12-18T01:03:57;43.58;;;17.75;;
3549;SDS011;45572;48.804;8.330;2022-12-18T01:06:24;42.88;;;18.33;;
3549;SDS011;45572;48.804;8.330;2022-12-18T01:08:54;36.30;;;18.70;;
3549;SDS011;45572;48.804;8.330;2022-12-18T01:11:22;55.15;;;21.27;;
3549;SDS011;45572;48.804;8.330;2022-12-18T01:13:51;42.55;;;18.55;;
3549;SDS011;45572;48.804;8.330;2022-12-18T01:16:21;42.38;;;19.60;;
3549;SDS011;45572;48.804;8.330;2022-12-18T01:18:51;39.83;;;19.25;;
3549;SDS011;45572;48.804;8.330;2022-12-18T01:21:20;52.00;;;18.35;;
3549;SDS011;45572;48.804;8.330;2022-12-18T01:23:50;43.22;;;18.40;;
3549;SDS011;45572;48.804;8.330;2022-12-18T01:26:20;41.17;;;17.38;;
3549;SDS011;45572;48.804;8.330;2022-12-18T01:28:49;37.55;;;18.17;;
3549;SDS011;45572;48.804;8.330;2022-12-18T01:31:19;40.88;;;17.60;;
3549;SDS011;45572;48.804;8.330;2022-12-18T01:33:48;43.78;;;18.75;;
3549;SDS011;45572;48.804;8.330;2022-12-18T01:36:19;36.20;;;17.65;;
3549;SDS011;45572;48.804;8.330;2022-12-18T01:38:49;54.47;;;19.38;;
3549;SDS011;45572;48.804;8.330;2022-12-18T01:41:18;39.15;;;18.02;;
3549;SDS011;45572;48.804;8.330;2022-12-18T01:43:50;40.50;;;17.17;;
3549;SDS011;45572;48.804;8.330;2022-12-18T01:46:20;41.95;;;18.52;;
3549;SDS011;45572;48.804;8.330;2022-12-18T01:48:55;39.63;;;17.20;;
3549;SDS011;45572;48.804;8.330;2022-12-18T01:51:26;40.85;;;16.90;;
3549;SDS011;45572;48.804;8.330;2022-12-18T01:53:56;43.30;;;17.70;;
3549;SDS011;45572;48.804;8.330;2022-12-18T01:56:25;40.55;;;19.17;;
3549;SDS011;45572;48.804;8.330;2022-12-18T01:58:56;34.80;;;15.20;;
3549;SDS011;45572;48.804;8.330;2022-12-18T02:01:28;33.35;;;16.77;;
3549;SDS011;45572;48.804;8.330;2022-12-18T02:04:14;44.13;;;17.63;;
3549;SDS011;45572;48.804;8.330;2022-12-18T02:06:47;39.83;;;18.25;;
3549;SDS011;45572;48.804;8.330;2022-12-18T02:09:23;45.55;;;15.73;;
3549;SDS011;45572;48.804;8.330;2022-12-18T02:11:59;36.25;;;15.68;;
3549;SDS011;45572;48.804;8.330;2022-12-18T02:14:38;51.00;;;21.00;;
3549;SDS011;45572;48.804;8.330;2022-12-18T02:17:10;40.67;;;17.33;;
3549;SDS011;45572;48.804;8.330;2022-12-18T02:19:44;39.90;;;16.30;;
3549;SDS011;45572;48.804;8.330;2022-12-18T02:22:25;47.00;;;20.08;;
3549;SDS011;45572;48.804;8.330;2022-12-18T02:25:00;49.08;;;16.92;;
3549;SDS011;45572;48.804;8.330;2022-12-18T02:27:40;44.05;;;18.27;;
3549;SDS011;45572;48.804;8.330;2022-12-18T02:30:11;38.15;;;17.65;;
3549;SDS011;45572;48.804;8.330;2022-12-18T02:32:40;45.78;;;18.77;;
3549;SDS011;45572;48.804;8.330;2022-12-18T02:35:13;42.65;;;18.77;;
3549;SDS011;45572;48.804;8.330;2022-12-18T02:37:45;37.08;;;16.58;;
3549;SDS011;45572;48.804;8.330;2022-12-18T02:40:15;47.63;;;18.05;;
3549;SDS011;45572;48.804;8.330;2022-12-18T02:42:46;38.90;;;15.80;;
3549;SDS011;45572;48.804;8.330;2022-12-18T02:45:17;50.30;;;17.88;;
3549;SDS011;45572;48.804;8.330;2022-12-18T02:47:46;41.72;;;18.02;;
3549;SDS011;45572;48.804;8.330;2022-12-18T02:50:17;38.25;;;17.75;;
3549;SDS011;45572;48.804;8.330;2022-12-18T02:52:55;41.95;;;18.45;;
3549;SDS011;45572;48.804;8.330;2022-12-18T02:55:34;47.55;;;20.60;;
3549;SDS011;45572;48.804;8.330;2022-12-18T02:58:17;34.30;;;17.60;;
3549;SDS011;45572;48.804;8.330;2022-12-18T03:00:52;43.92;;;18.25;;
3549;SDS011;45572;48.804;8.330;2022-12-18T03:03:28;38.80;;;18.17;;
3549;SDS011;45572;48.804;8.330;2022-12-18T03:06:03;46.72;;;16.95;;
3549;SDS011;45572;48.804;8.330;2022-12-18T03:08:36;31.45;;;16.02;;
3549;SDS011;45572;48.804;8.330;2022-12-18T03:11:08;49.35;;;18.88;;
3549;SDS011;45572;48.804;8.330;2022-12-18T03:13:42;43.42;;;18.83;;
3549;SDS011;45572;48.804;8.330;2022-12-18T03:16:14;48.83;;;21.05;;
3549;SDS011;45572;48.804;8.330;2022-12-18T03:18:45;47.95;;;19.52;;
3549;SDS011;45572;48.804;8.330;2022-12-18T03:21:15;42.05;;;19.45;;
3549;SDS011;45572;48.804;8.330;2022-12-18T03:23:47;41.75;;;18.02;;
3549;SDS011;45572;48.804;8.330;2022-12-18T03:26:21;39.47;;;19.55;;
3549;SDS011;45572;48.804;8.330;2022-12-18T03:28:59;42.03;;;20.25;;
3549;SDS011;45572;48.804;8.330;2022-12-18T03:31:30;40.83;;;17.65;;
3549;SDS011;45572;48.804;8.330;2022-12-18T03:34:01;47.75;;;19.60;;
3549;SDS011;45572;48.804;8.330;2022-12-18T03:36:39;43.10;;;19.67;;
3549;SDS011;45572;48.804;8.330;2022-12-18T03:39:07;44.03;;;18.02;;
3549;SDS011;45572;48.804;8.330;2022-12-18T03:41:38;40.83;;;17.63;;
3549;SDS011;45572;48.804;8.330;2022-12-18T03:44:21;37.85;;;18.70;;
3549;SDS011;45572;48.804;8.330;2022-12-18T03:46:58;50.53;;;18.50;;
3549;SDS011;45572;48.804;8.330;2022-12-18T03:49:34;37.22;;;17.23;;
3549;SDS011;45572;48.804;8.330;2022-12-18T03:52:07;42.97;;;17.52;;
3549;SDS011;45572;48.804;8.330;2022-12-18T03:54:39;47.67;;;19.60;;
3549;SDS011;45572;48.804;8.330;2022-12-18T03:57:13;49.42;;;19.67;;
3549;SDS011;45572;48.804;8.330;2022-12-18T03:59:48;38.75;;;17.83;;
3549;SDS011;45572;48.804;8.330;2022-12-18T04:02:22;36.88;;;15.73;;
3549;SDS011;45572;48.804;8.330;2022-12-18T04:04:53;36.88;;;18.08;;
3549;SDS011;45572;48.804;8.330;2022-12-18T04:07:26;38.70;;;17.23;;
3549;SDS011;45572;48.804;8.330;2022-12-18T04:09:56;44.38;;;18.38;;
3549;SDS011;45572;48.804;8.330;2022-12-18T04:12:29;38.88;;;17.70;;
3549;SDS011;45572;48.804;8.330;2022-12-18T04:14:58;38.90;;;17.98;;
3549;SDS011;45572;48.804;8.330;2022-12-18T04:17:26;42.42;;;17.65;;
3549;SDS011;45572;48.804;8.330;2022-12-18T04:19:54;38.58;;;17.58;;
3549;SDS011;45572;48.804;8.330;2022-12-18T04:22:23;44.08;;;18.85;;
3549;SDS011;45572;48.804;8.330;2022-12-18T04:24:57;39.70;;;17.30;;
3549;SDS011;45572;48.804;8.330;2022-12-18T04:27:32;36.15;;;15.82;;
3549;SDS011;45572;48.804;8.330;2022-12-18T04:30:02;40.47;;;18.58;;
3549;SDS011;45572;48.804;8.330;2022-12-18T04:32:32;36.13;;;16.85;;
3549;SDS011;45572;48.804;8.330;2022-12-18T04:35:00;39.38;;;17.85;;
3549;SDS011;45572;48.804;8.330;2022-12-18T04:37:31;35.67;;;15.90;;
3549;SDS011;45572;48.804;8.330;2022-12-18T04:39:58;41.40;;;16.27;;
3549;SDS011;45572;48.804;8.330;2022-12-18T04:42:35;43.10;;;16.60;;
3549;SDS011;45572;48.804;8.330;2022-12-18T04:45:04;47.65;;;17.15;;
3549;SDS011;45572;48.804;8.330;2022-12-18T04:47:33;38.63;;;15.43;;
3549;SDS011;45572;48.804;8.330;2022-12-18T04:50:02;41.25;;;16.63;;
3549;SDS011;45572;48.804;8.330;2022-12-18T04:52:31;32.00;;;14.85;;
3549;SDS011;45572;48.804;8.330;2022-12-18T04:54:59;39.38;;;17.33;;
3549;SDS011;45572;48.804;8.330;2022-12-18T04:57:26;38.58;;;16.88;;
3549;SDS011;45572;48.804;8.330;2022-12-18T04:59:54;45.60;;;17.52;;
3549;SDS011;45572;48.804;8.330;2022-12-18T05:02:23;41.33;;;18.30;;
3549;SDS011;45572;48.804;8.330;2022-12-18T05:04:51;54.25;;;19.88;;
3549;SDS011;45572;48.804;8.330;2022-12-18T05:07:19;34.05;;;17.20;;
3549;SDS011;45572;48.804;8.330;2022-12-18T05:09:46;45.40;;;19.10;;
3549;SDS011;45572;48.804;8.330;2022-12-18T05:12:14;50.22;;;20.75;;
3549;SDS011;45572;48.804;8.330;2022-12-18T05:14:42;40.55;;;19.80;;
3549;SDS011;45572;48.804;8.330;2022-12-18T05:17:10;55.17;;;19.10;;
3549;SDS011;45572;48.804;8.330;2022-12-18T05:19:39;48.78;;;19.30;;
3549;SDS011;45572;48.804;8.330;2022-12-18T05:22:07;42.20;;;18.67;;
3549;SDS011;45572;48.804;8.330;2022-12-18T05:24:35;42.90;;;18.50;;
3549;SDS011;45572;48.804;8.330;2022-12-18T05:27:02;44.83;;;18.70;;
3549;SDS011;45572;48.804;8.330;2022-12-18T05:29:30;41.33;;;17.65;;
3549;SDS011;45572;48.804;8.330;2022-12-18T05:31:58;37.30;;;18.67;;
3549;SDS011;45572;48.804;8.330;2022-12-18T05:34:26;40.47;;;16.88;;
3549;SDS011;45572;48.804;8.330;2022-12-18T05:36:55;44.20;;;18.70;;
3549;SDS011;45572;48.804;8.330;2022-12-18T05:39:23;42.58;;;18.08;;
3549;SDS011;45572;48.804;8.330;2022-12-18T05:41:51;41.75;;;18.58;;
3549;SDS011;45572;48.804;8.330;2022-12-18T05:44:18;31.88;;;16.90;;
3549;SDS011;45572;48.804;8.330;2022-12-18T05:46:46;35.42;;;16.02;;
3549;SDS011;45572;48.804;8.330;2022-12-18T05:49:14;36.15;;;16.63;;
3549;SDS011;45572;48.804;8.330;2022-12-18T05:51:41;47.95;;;17.23;;
3549;SDS011;45572;48.804;8.330;2022-12-18T05:54:10;41.17;;;17.65;;
3549;SDS011;45572;48.804;8.330;2022-12-18T05:56:38;49.92;;;18.02;;
3549;SDS011;45572;48.804;8.330;2022-12-18T05:59:13;42.08;;;17.80;;
3549;SDS011;45572;48.804;8.330;2022-12-18T06:01:41;38.40;;;16.42;;
3549;SDS011;45572;48.804;8.330;2022-12-18T06:04:10;40.78;;;16.08;;
3549;SDS011;45572;48.804;8.330;2022-12-18T06:06:38;43.85;;;16.77;;
3549;SDS011;45572;48.804;8.330;2022-12-18T06:09:06;46.38;;;16.73;;
3549;SDS011;45572;48.804;8.330;2022-12-18T06:11:37;39.53;;;17.65;;
3549;SDS011;45572;48.804;8.330;2022-12-18T06:14:05;42.65;;;17.58;;
3549;SDS011;45572;48.804;8.330;2022-12-18T06:16:33;43.53;;;18.52;;
3549;SDS011;45572;48.804;8.330;2022-12-18T06:19:02;41.33;;;16.90;;
3549;SDS011;45572;48.804;8.330;2022-12-18T06:21:31;46.75;;;19.90;;
3549;SDS011;45572;48.804;8.330;2022-12-18T06:24:00;44.85;;;19.33;;
3549;SDS011;45572;48.804;8.330;2022-12-18T06:26:28;46.63;;;19.30;;
3549;SDS011;45572;48.804;8.330;2022-12-18T06:28:57;62.28;;;19.48;;
3549;SDS011;45572;48.804;8.330;2022-12-18T06:31:24;43.60;;;17.55;;
3549;SDS011;45572;48.804;8.330;2022-12-18T06:33:53;47.33;;;19.85;;
3549;SDS011;45572;48.804;8.330;2022-12-18T06:36:20;48.50;;;20.20;;
3549;SDS011;45572;48.804;8.330;2022-12-18T06:38:48;44.70;;;18.02;;
3549;SDS011;45572;48.804;8.330;2022-12-18T06:41:17;49.33;;;17.67;;
3549;SDS011;45572;48.804;8.330;2022-12-18T06:43:47;49.08;;;18.65;;
3549;SDS011;45572;48.804;8.330;2022-12-18T06:46:16;45.20;;;19.52;;
3549;SDS011;45572;48.804;8.330;2022-12-18T06:48:46;45.60;;;16.48;;
3549;SDS011;45572;48.804;8.330;2022-12-18T06:51:16;41.10;;;20.25;;
3549;SDS011;45572;48.804;8.330;2022-12-18T06:53:45;46.38;;;18.35;;
3549;SDS011;45572;48.804;8.330;2022-12-18T06:56:12;43.20;;;17.77;;
3549;SDS011;45572;48.804;8.330;2022-12-18T06:58:40;44.58;;;17.75;;
3549;SDS011;45572;48.804;8.330;2022-12-18T07:01:08;40.20;;;15.13;;
3549;SDS011;45572;48.804;8.330;2022-12-18T07:03:39;52.95;;;18.50;;
3549;SDS011;45572;48.804;8.330;2022-12-18T07:06:13;45.25;;;18.75;;
3549;SDS011;45572;48.804;8.330;2022-12-18T07:08:42;47.45;;;20.60;;
3549;SDS011;45572;48.804;8.330;2022-12-18T07:11:10;41.50;;;16.33;;
3549;SDS011;45572;48.804;8.330;2022-12-18T07:13:38;40.90;;;17.27;;
3549;SDS011;45572;48.804;8.330;2022-12-18T07:16:07;49.03;;;17.85;;
3549;SDS011;45572;48.804;8.330;2022-12-18T07:18:49;40.55;;;17.08;;
3549;SDS011;45572;48.804;8.330;2022-12-18T07:21:17;34.65;;;15.88;;
3549;SDS011;45572;48.804;8.330;2022-12-18T07:23:46;35.03;;;16.63;;
3549;SDS011;45572;48.804;8.330;2022-12-18T07:26:15;44.03;;;16.75;;
3549;SDS011;45572;48.804;8.330;2022-12-18T07:28:44;43.53;;;17.52;;
3549;SDS011;45572;48.804;8.330;2022-12-18T07:31:12;42.97;;;17.63;;
3549;SDS011;45572;48.804;8.330;2022-12-18T07:33:42;39.15;;;17.52;;
3549;SDS011;45572;48.804;8.330;2022-12-18T07:36:12;48.13;;;17.65;;
3549;SDS011;45572;48.804;8.330;2022-12-18T07:38:40;41.15;;;17.70;;
3549;SDS011;45572;48.804;8.330;2022-12-18T07:41:09;42.17;;;16.08;;
3549;SDS011;45572;48.804;8.330;2022-12-18T07:43:38;41.78;;;17.33;;
3549;SDS011;45572;48.804;8.330;2022-12-18T07:46:08;58.45;;;19.83;;
3549;SDS011;45572;48.804;8.330;2022-12-18T07:48:38;40.58;;;18.10;;
3549;SDS011;45572;48.804;8.330;2022-12-18T07:51:07;56.58;;;18.77;;
3549;SDS011;45572;48.804;8.330;2022-12-18T07:53:36;44.72;;;18.65;;
3549;SDS011;45572;48.804;8.330;2022-12-18T07:56:05;34.20;;;17.08;;
3549;SDS011;45572;48.804;8.330;2022-12-18T07:58:55;40.75;;;18.08;;
3549;SDS011;45572;48.804;8.330;2022-12-18T08:01:23;46.85;;;18.35;;
3549;SDS011;45572;48.804;8.330;2022-12-18T08:03:51;44.00;;;19.33;;
3549;SDS011;45572;48.804;8.330;2022-12-18T08:06:19;41.28;;;16.90;;
3549;SDS011;45572;48.804;8.330;2022-12-18T08:08:51;41.00;;;17.70;;
3549;SDS011;45572;48.804;8.330;2022-12-18T08:11:19;48.30;;;18.35;;
3549;SDS011;45572;48.804;8.330;2022-12-18T08:13:47;38.13;;;16.23;;
3549;SDS011;45572;48.804;8.330;2022-12-18T08:16:15;41.72;;;19.10;;
3549;SDS011;45572;48.804;8.330;2022-12-18T08:18:43;48.13;;;20.38;;
3549;SDS011;45572;48.804;8.330;2022-12-18T08:21:15;35.30;;;17.80;;
3549;SDS011;45572;48.804;8.330;2022-12-18T08:23:46;44.65;;;18.48;;
3549;SDS011;45572;48.804;8.330;2022-12-18T08:26:17;39.47;;;17.48;;
3549;SDS011;45572;48.804;8.330;2022-12-18T08:28:46;46.28;;;17.92;;
3549;SDS011;45572;48.804;8.330;2022-12-18T08:31:15;53.92;;;20.75;;
3549;SDS011;45572;48.804;8.330;2022-12-18T08:33:44;45.10;;;18.73;;
3549;SDS011;45572;48.804;8.330;2022-12-18T08:36:12;50.85;;;19.92;;
3549;SDS011;45572;48.804;8.330;2022-12-18T08:38:40;43.70;;;17.95;;
3549;SDS011;45572;48.804;8.330;2022-12-18T08:41:08;44.33;;;16.85;;
3549;SDS011;45572;48.804;8.330;2022-12-18T08:43:39;41.05;;;18.20;;
3549;SDS011;45572;48.804;8.330;2022-12-18T08:46:21;37.85;;;16.83;;
3549;SDS011;45572;48.804;8.330;2022-12-18T08:48:51;42.90;;;19.42;;
3549;SDS011;45572;48.804;8.330;2022-12-18T08:51:20;49.83;;;21.42;;
3549;SDS011;45572;48.804;8.330;2022-12-18T08:53:48;56.65;;;20.13;;
3549;SDS011;45572;48.804;8.330;2022-12-18T08:56:16;47.97;;;16.95;;
3549;SDS011;45572;48.804;8.330;2022-12-18T08:58:45;49.90;;;19.73;;
3549;SDS011;45572;48.804;8.330;2022-12-18T09:01:13;37.95;;;17.38;;
3549;SDS011;45572;48.804;8.330;2022-12-18T09:03:41;50.63;;;19.10;;
3549;SDS011;45572;48.804;8.330;2022-12-18T09:06:12;43.28;;;17.70;;
3549;SDS011;45572;48.804;8.330;2022-12-18T09:08:41;48.55;;;21.65;;
3549;SDS011;45572;48.804;8.330;2022-12-18T09:11:11;52.63;;;19.95;;
3549;SDS011;45572;48.804;8.330;2022-12-18T09:13:41;44.78;;;18.05;;
3549;SDS011;45572;48.804;8.330;2022-12-18T09:16:10;48.58;;;18.52;;
3549;SDS011;45572;48.804;8.330;2022-12-18T09:18:38;48.30;;;19.83;;
3549;SDS011;45572;48.804;8.330;2022-12-18T09:21:07;51.55;;;18.98;;
3549;SDS011;45572;48.804;8.330;2022-12-18T09:23:36;49.20;;;19.58;;
3549;SDS011;45572;48.804;8.330;2022-12-18T09:26:04;47.40;;;19.92;;
3549;SDS011;45572;48.804;8.330;2022-12-18T09:28:32;50.83;;;20.30;;
3549;SDS011;45572;48.804;8.330;2022-12-18T09:31:02;44.85;;;19.70;;
3549;SDS011;45572;48.804;8.330;2022-12-18T09:33:33;42.53;;;18.67;;
3549;SDS011;45572;48.804;8.330;2022-12-18T09:36:02;43.90;;;20.38;;
3549;SDS011;45572;48.804;8.330;2022-12-18T09:38:33;50.70;;;21.85;;
3549;SDS011;45572;48.804;8.330;2022-12-18T09:41:03;42.80;;;18.92;;
3549;SDS011;45572;48.804;8.330;2022-12-18T09:43:34;48.42;;;19.33;;
3549;SDS011;45572;48.804;8.330;2022-12-18T09:46:07;44.88;;;18.08;;
3549;SDS011;45572;48.804;8.330;2022-12-18T09:48:40;55.47;;;21.13;;
3549;SDS011;45572;48.804;8.330;2022-12-18T09:51:13;36.35;;;19.02;;
3549;SDS011;45572;48.804;8.330;2022-12-18T09:53:45;52.70;;;20.60;;
3549;SDS011;45572;48.804;8.330;2022-12-18T09:56:28;42.33;;;18.48;;
3549;SDS011;45572;48.804;8.330;2022-12-18T09:58:59;41.22;;;18.50;;
3549;SDS011;45572;48.804;8.330;2022-12-18T10:01:28;50.38;;;22.30;;
3549;SDS011;45572;48.804;8.330;2022-12-18T10:04:10;43.35;;;19.17;;
3549;SDS011;45572;48.804;8.330;2022-12-18T10:06:39;43.58;;;19.25;;
3549;SDS011;45572;48.804;8.330;2022-12-18T10:09:14;55.20;;;19.73;;
3549;SDS011;45572;48.804;8.330;2022-12-18T10:11:49;51.55;;;18.40;;
3549;SDS011;45572;48.804;8.330;2022-12-18T10:14:29;43.20;;;19.17;;
3549;SDS011;45572;48.804;8.330;2022-12-18T10:17:03;42.83;;;19.50;;
3549;SDS011;45572;48.804;8.330;2022-12-18T10:19:43;40.10;;;17.70;;
3549;SDS011;45572;48.804;8.330;2022-12-18T10:22:20;45.58;;;18.45;;
3549;SDS011;45572;48.804;8.330;2022-12-18T10:24:59;72.32;;;28.70;;
3549;SDS011;45572;48.804;8.330;2022-12-18T10:27:32;38.00;;;19.98;;
3549;SDS011;45572;48.804;8.330;2022-12-18T10:30:04;45.53;;;20.45;;
3549;SDS011;45572;48.804;8.330;2022-12-18T10:32:41;35.58;;;17.15;;
3549;SDS011;45572;48.804;8.330;2022-12-18T10:35:11;33.13;;;17.27;;
3549;SDS011;45572;48.804;8.330;2022-12-18T10:40:30;47.75;;;19.02;;
3549;SDS011;45572;48.804;8.330;2022-12-18T10:43:03;47.60;;;18.80;;
3549;SDS011;45572;48.804;8.330;2022-12-18T10:45:33;38.55;;;18.02;;
3549;SDS011;45572;48.804;8.330;2022-12-18T10:48:01;42.72;;;20.60;;
3549;SDS011;45572;48.804;8.330;2022-12-18T10:50:31;47.13;;;17.85;;
3549;SDS011;45572;48.804;8.330;2022-12-18T10:53:21;40.58;;;16.50;;
3549;SDS011;45572;48.804;8.330;2022-12-18T10:55:51;37.22;;;16.95;;
3549;SDS011;45572;48.804;8.330;2022-12-18T10:58:23;35.95;;;16.42;;
3549;SDS011;45572;48.804;8.330;2022-12-18T11:01:01;45.75;;;20.58;;
3549;SDS011;45572;48.804;8.330;2022-12-18T11:03:33;54.65;;;19.55;;
3549;SDS011;45572;48.804;8.330;2022-12-18T11:06:06;32.50;;;17.42;;
3549;SDS011;45572;48.804;8.330;2022-12-18T11:08:36;41.72;;;18.35;;
3549;SDS011;45572;48.804;8.330;2022-12-18T11:11:07;45.75;;;20.10;;
3549;SDS011;45572;48.804;8.330;2022-12-18T11:13:47;40.38;;;17.52;;
3549;SDS011;45572;48.804;8.330;2022-12-18T11:16:24;65.47;;;24.20;;
3549;SDS011;45572;48.804;8.330;2022-12-18T11:18:53;43.03;;;18.55;;
3549;SDS011;45572;48.804;8.330;2022-12-18T11:21:22;42.83;;;19.27;;
3549;SDS011;45572;48.804;8.330;2022-12-18T11:23:51;48.28;;;19.15;;
3549;SDS011;45572;48.804;8.330;2022-12-18T11:26:20;42.63;;;18.90;;
3549;SDS011;45572;48.804;8.330;2022-12-18T11:28:49;38.88;;;18.85;;
3549;SDS011;45572;48.804;8.330;2022-12-18T11:31:21;46.38;;;19.92;;
3549;SDS011;45572;48.804;8.330;2022-12-18T11:33:53;43.80;;;22.45;;
3549;SDS011;45572;48.804;8.330;2022-12-18T11:36:47;42.22;;;21.42;;
3549;SDS011;45572;48.804;8.330;2022-12-18T11:39:16;50.85;;;20.40;;
3549;SDS011;45572;48.804;8.330;2022-12-18T11:41:49;45.83;;;21.70;;
3549;SDS011;45572;48.804;8.330;2022-12-18T11:44:35;44.42;;;20.67;;
3549;SDS011;45572;48.804;8.330;2022-12-18T11:47:09;51.70;;;23.20;;
3549;SDS011;45572;48.804;8.330;2022-12-18T11:49:47;51.20;;;22.40;;
3549;SDS011;45572;48.804;8.330;2022-12-18T11:52:18;35.70;;;19.17;;
3549;SDS011;45572;48.804;8.330;2022-12-18T11:54:50;53.45;;;23.50;;
3549;SDS011;45572;48.804;8.330;2022-12-18T11:57:24;54.95;;;21.90;;
3549;SDS011;45572;48.804;8.330;2022-12-18T12:00:02;52.17;;;21.25;;
3549;SDS011;45572;48.804;8.330;2022-12-18T12:02:42;47.92;;;19.42;;
3549;SDS011;45572;48.804;8.330;2022-12-18T12:05:31;47.47;;;19.23;;
3549;SDS011;45572;48.804;8.330;2022-12-18T12:08:12;45.95;;;22.45;;
3549;SDS011;45572;48.804;8.330;2022-12-18T12:10:52;47.40;;;21.42;;
3549;SDS011;45572;48.804;8.330;2022-12-18T12:13:33;53.17;;;22.15;;
3549;SDS011;45572;48.804;8.330;2022-12-18T12:16:10;50.10;;;22.58;;
3549;SDS011;45572;48.804;8.330;2022-12-18T12:18:48;48.00;;;20.85;;
3549;SDS011;45572;48.804;8.330;2022-12-18T12:21:24;58.45;;;22.92;;
3549;SDS011;45572;48.804;8.330;2022-12-18T12:23:58;56.40;;;22.40;;
3549;SDS011;45572;48.804;8.330;2022-12-18T12:26:38;55.80;;;21.83;;
3549;SDS011;45572;48.804;8.330;2022-12-18T12:29:20;49.72;;;19.92;;
3549;SDS011;45572;48.804;8.330;2022-12-18T12:32:02;43.80;;;20.10;;
3549;SDS011;45572;48.804;8.330;2022-12-18T12:34:46;46.03;;;19.65;;
3549;SDS011;45572;48.804;8.330;2022-12-18T12:37:29;37.13;;;19.42;;
3549;SDS011;45572;48.804;8.330;2022-12-18T12:40:05;55.35;;;23.17;;
3549;SDS011;45572;48.804;8.330;2022-12-18T12:42:54;41.35;;;19.23;;
3549;SDS011;45572;48.804;8.330;2022-12-18T12:45:41;50.08;;;23.33;;
3549;SDS011;45572;48.804;8.330;2022-12-18T12:48:16;50.75;;;21.55;;
3549;SDS011;45572;48.804;8.330;2022-12-18T12:50:59;37.50;;;19.73;;
3549;SDS011;45572;48.804;8.330;2022-12-18T12:53:32;55.28;;;22.83;;
3549;SDS011;45572;48.804;8.330;2022-12-18T12:56:06;58.10;;;22.17;;
3549;SDS011;45572;48.804;8.330;2022-12-18T12:58:41;44.22;;;19.52;;
3549;SDS011;45572;48.804;8.330;2022-12-18T13:01:16;44.70;;;19.77;;
3549;SDS011;45572;48.804;8.330;2022-12-18T13:03:53;56.08;;;23.25;;
3549;SDS011;45572;48.804;8.330;2022-12-18T13:06:32;48.03;;;21.73;;
3549;SDS011;45572;48.804;8.330;2022-12-18T13:09:10;57.13;;;22.52;;
3549;SDS011;45572;48.804;8.330;2022-12-18T13:11:40;50.33;;;22.15;;
3549;SDS011;45572;48.804;8.330;2022-12-18T13:14:42;45.00;;;20.02;;
3549;SDS011;45572;48.804;8.330;2022-12-18T13:17:14;49.20;;;19.90;;
3549;SDS011;45572;48.804;8.330;2022-12-18T13:19:43;45.20;;;21.20;;
3549;SDS011;45572;48.804;8.330;2022-12-18T13:22:20;49.15;;;21.60;;
3549;SDS011;45572;48.804;8.330;2022-12-18T13:25:00;48.42;;;24.10;;
3549;SDS011;45572;48.804;8.330;2022-12-18T13:36:26;57.72;;;24.55;;
3549;SDS011;45572;48.804;8.330;2022-12-18T13:48:15;53.20;;;22.02;;
3549;SDS011;45572;48.804;8.330;2022-12-18T13:50:48;53.97;;;21.95;;
3549;SDS011;45572;48.804;8.330;2022-12-18T13:53:20;49.70;;;22.35;;
3549;SDS011;45572;48.804;8.330;2022-12-18T13:55:51;53.70;;;23.67;;
3549;SDS011;45572;48.804;8.330;2022-12-18T13:58:19;50.83;;;23.55;;
3549;SDS011;45572;48.804;8.330;2022-12-18T14:00:47;57.40;;;23.85;;
3549;SDS011;45572;48.804;8.330;2022-12-18T14:03:20;54.60;;;25.50;;
3549;SDS011;45572;48.804;8.330;2022-12-18T14:05:52;57.15;;;25.83;;
3549;SDS011;45572;48.804;8.330;2022-12-18T14:08:22;66.43;;;27.83;;
3549;SDS011;45572;48.804;8.330;2022-12-18T14:10:53;61.85;;;25.52;;
3549;SDS011;45572;48.804;8.330;2022-12-18T14:13:27;52.80;;;24.88;;
3549;SDS011;45572;48.804;8.330;2022-12-18T14:15:58;69.68;;;24.52;;
3549;SDS011;45572;48.804;8.330;2022-12-18T14:18:31;49.05;;;23.17;;
3549;SDS011;45572;48.804;8.330;2022-12-18T14:21:06;63.88;;;24.98;;
3549;SDS011;45572;48.804;8.330;2022-12-18T14:23:43;61.60;;;24.48;;
3549;SDS011;45572;48.804;8.330;2022-12-18T14:28:56;49.63;;;23.02;;
3549;SDS011;45572;48.804;8.330;2022-12-18T14:31:28;76.40;;;29.70;;
3549;SDS011;45572;48.804;8.330;2022-12-18T14:33:59;68.95;;;26.60;;
3549;SDS011;45572;48.804;8.330;2022-12-18T14:36:27;71.72;;;26.05;;
3549;SDS011;45572;48.804;8.330;2022-12-18T14:38:57;62.78;;;24.55;;
3549;SDS011;45572;48.804;8.330;2022-12-18T14:41:26;62.38;;;27.10;;
3549;SDS011;45572;48.804;8.330;2022-12-18T14:43:54;57.83;;;27.95;;
3549;SDS011;45572;48.804;8.330;2022-12-18T14:46:32;62.13;;;24.23;;
3549;SDS011;45572;48.804;8.330;2022-12-18T14:49:04;61.83;;;24.75;;
3549;SDS011;45572;48.804;8.330;2022-12-18T14:51:46;59.03;;;25.83;;
3549;SDS011;45572;48.804;8.330;2022-12-18T14:54:16;59.25;;;24.27;;
3549;SDS011;45572;48.804;8.330;2022-12-18T14:56:46;58.08;;;25.85;;
3549;SDS011;45572;48.804;8.330;2022-12-18T14:59:17;56.67;;;25.67;;
3549;SDS011;45572;48.804;8.330;2022-12-18T15:01:54;58.50;;;25.27;;
3549;SDS011;45572;48.804;8.330;2022-12-18T15:04:29;50.00;;;25.77;;
3549;SDS011;45572;48.804;8.330;2022-12-18T15:07:03;57.17;;;28.77;;
3549;SDS011;45572;48.804;8.330;2022-12-18T15:09:35;63.20;;;27.95;;
3549;SDS011;45572;48.804;8.330;2022-12-18T15:12:03;73.28;;;31.98;;
3549;SDS011;45572;48.804;8.330;2022-12-18T15:14:33;77.53;;;31.40;;
3549;SDS011;45572;48.804;8.330;2022-12-18T15:17:06;73.95;;;32.72;;
3549;SDS011;45572;48.804;8.330;2022-12-18T15:19:46;72.80;;;32.30;;
3549;SDS011;45572;48.804;8.330;2022-12-18T15:22:17;72.53;;;31.90;;
3549;SDS011;45572;48.804;8.330;2022-12-18T15:25:02;65.32;;;27.08;;